sensor_id;sensor_type;location;lat;lon;timestamp;P1;durP1;ratioP1;P2;durP2;ratioP2
53391;SDS011;41667;51.922;8.850;2023-02-22T00:01:39;30.25;;;12.15;;
53391;SDS011;41667;51.922;8.850;2023-02-22T00:04:11;31.60;;;14.10;;
53391;SDS011;41667;51.922;8.850;2023-02-22T00:06:37;26.38;;;12.05;;
53391;SDS011;41667;51.922;8.850;2023-02-22T00:09:02;23.23;;;11.75;;
53391;SDS011;41667;51.922;8.850;2023-02-22T00:11:27;25.33;;;12.40;;
53391;SDS011;41667;51.922;8.850;2023-02-22T00:13:52;25.83;;;11.88;;
53391;SDS011;41667;51.922;8.850;2023-02-22T00:16:21;24.95;;;11.27;;
53391;SDS011;41667;51.922;8.850;2023-02-22T00:18:48;29.95;;;12.82;;
53391;SDS011;41667;51.922;8.850;2023-02-22T00:21:14;21.13;;;11.20;;
53391;SDS011;41667;51.922;8.850;2023-02-22T00:23:41;22.63;;;11.10;;
53391;SDS011;41667;51.922;8.850;2023-02-22T00:26:10;24.83;;;11.43;;
53391;SDS011;41667;51.922;8.850;2023-02-22T00:28:37;24.48;;;11.45;;
53391;SDS011;41667;51.922;8.850;2023-02-22T00:31:03;22.75;;;11.80;;
53391;SDS011;41667;51.922;8.850;2023-02-22T00:33:30;25.00;;;11.07;;
53391;SDS011;41667;51.922;8.850;2023-02-22T00:35:56;29.55;;;12.55;;
53391;SDS011;41667;51.922;8.850;2023-02-22T00:38:21;25.67;;;12.10;;
53391;SDS011;41667;51.922;8.850;2023-02-22T00:40:46;28.23;;;13.55;;
53391;SDS011;41667;51.922;8.850;2023-02-22T00:43:12;27.75;;;12.85;;
53391;SDS011;41667;51.922;8.850;2023-02-22T00:45:37;27.23;;;11.77;;
53391;SDS011;41667;51.922;8.850;2023-02-22T00:48:03;27.23;;;13.10;;
53391;SDS011;41667;51.922;8.850;2023-02-22T00:50:29;27.52;;;13.52;;
53391;SDS011;41667;51.922;8.850;2023-02-22T00:52:54;27.75;;;12.98;;
53391;SDS011;41667;51.922;8.850;2023-02-22T00:55:24;28.10;;;12.98;;
53391;SDS011;41667;51.922;8.850;2023-02-22T00:57:49;32.28;;;14.23;;
53391;SDS011;41667;51.922;8.850;2023-02-22T01:00:17;27.48;;;13.82;;
53391;SDS011;41667;51.922;8.850;2023-02-22T01:02:42;30.27;;;12.40;;
53391;SDS011;41667;51.922;8.850;2023-02-22T01:05:08;26.67;;;11.13;;
53391;SDS011;41667;51.922;8.850;2023-02-22T01:07:34;28.00;;;11.80;;
53391;SDS011;41667;51.922;8.850;2023-02-22T01:10:00;28.88;;;12.95;;
53391;SDS011;41667;51.922;8.850;2023-02-22T01:12:25;25.45;;;12.65;;
53391;SDS011;41667;51.922;8.850;2023-02-22T01:14:51;25.13;;;11.48;;
53391;SDS011;41667;51.922;8.850;2023-02-22T01:17:16;27.80;;;12.52;;
53391;SDS011;41667;51.922;8.850;2023-02-22T01:19:41;26.73;;;11.65;;
53391;SDS011;41667;51.922;8.850;2023-02-22T01:22:07;22.65;;;11.48;;
53391;SDS011;41667;51.922;8.850;2023-02-22T01:24:32;26.85;;;12.40;;
53391;SDS011;41667;51.922;8.850;2023-02-22T01:26:57;24.23;;;11.20;;
53391;SDS011;41667;51.922;8.850;2023-02-22T01:29:22;33.72;;;11.38;;
53391;SDS011;41667;51.922;8.850;2023-02-22T01:31:51;29.80;;;11.55;;
53391;SDS011;41667;51.922;8.850;2023-02-22T01:34:18;27.88;;;12.25;;
53391;SDS011;41667;51.922;8.850;2023-02-22T01:36:43;26.27;;;11.35;;
53391;SDS011;41667;51.922;8.850;2023-02-22T01:39:09;24.70;;;11.38;;
53391;SDS011;41667;51.922;8.850;2023-02-22T01:41:37;24.48;;;10.98;;
53391;SDS011;41667;51.922;8.850;2023-02-22T01:44:19;28.85;;;11.18;;
53391;SDS011;41667;51.922;8.850;2023-02-22T01:46:45;36.90;;;11.43;;
53391;SDS011;41667;51.922;8.850;2023-02-22T01:49:10;24.27;;;10.23;;
53391;SDS011;41667;51.922;8.850;2023-02-22T01:51:41;26.48;;;10.02;;
53391;SDS011;41667;51.922;8.850;2023-02-22T01:54:09;22.20;;;10.35;;
53391;SDS011;41667;51.922;8.850;2023-02-22T01:56:37;24.17;;;10.75;;
53391;SDS011;41667;51.922;8.850;2023-02-22T01:59:06;23.63;;;11.80;;
53391;SDS011;41667;51.922;8.850;2023-02-22T02:01:33;26.40;;;10.13;;
53391;SDS011;41667;51.922;8.850;2023-02-22T02:04:00;23.77;;;10.65;;
53391;SDS011;41667;51.922;8.850;2023-02-22T02:06:29;22.77;;;10.60;;
53391;SDS011;41667;51.922;8.850;2023-02-22T02:09:08;26.15;;;11.60;;
53391;SDS011;41667;51.922;8.850;2023-02-22T02:11:34;28.10;;;11.82;;
53391;SDS011;41667;51.922;8.850;2023-02-22T02:14:00;30.73;;;12.00;;
53391;SDS011;41667;51.922;8.850;2023-02-22T02:16:26;26.37;;;11.23;;
53391;SDS011;41667;51.922;8.850;2023-02-22T02:18:54;21.20;;;10.20;;
53391;SDS011;41667;51.922;8.850;2023-02-22T02:23:57;25.15;;;11.18;;
53391;SDS011;41667;51.922;8.850;2023-02-22T02:29:13;29.48;;;10.75;;
53391;SDS011;41667;51.922;8.850;2023-02-22T02:34:26;26.00;;;11.25;;
53391;SDS011;41667;51.922;8.850;2023-02-22T02:36:57;27.50;;;10.80;;
53391;SDS011;41667;51.922;8.850;2023-02-22T02:39:28;21.60;;;9.65;;
53391;SDS011;41667;51.922;8.850;2023-02-22T02:41:55;27.08;;;10.38;;
53391;SDS011;41667;51.922;8.850;2023-02-22T02:44:30;25.60;;;10.55;;
53391;SDS011;41667;51.922;8.850;2023-02-22T02:47:01;21.00;;;10.65;;
53391;SDS011;41667;51.922;8.850;2023-02-22T02:49:29;22.10;;;9.98;;
53391;SDS011;41667;51.922;8.850;2023-02-22T02:51:55;20.63;;;9.05;;
53391;SDS011;41667;51.922;8.850;2023-02-22T02:54:21;24.25;;;10.13;;
53391;SDS011;41667;51.922;8.850;2023-02-22T02:56:47;25.77;;;10.05;;
53391;SDS011;41667;51.922;8.850;2023-02-22T02:59:31;23.17;;;10.50;;
53391;SDS011;41667;51.922;8.850;2023-02-22T03:02:03;23.65;;;10.30;;
53391;SDS011;41667;51.922;8.850;2023-02-22T03:12:16;20.17;;;8.88;;
53391;SDS011;41667;51.922;8.850;2023-02-22T03:14:52;25.95;;;8.95;;
53391;SDS011;41667;51.922;8.850;2023-02-22T03:19:58;24.90;;;9.18;;
53391;SDS011;41667;51.922;8.850;2023-02-22T03:22:26;26.98;;;10.02;;
53391;SDS011;41667;51.922;8.850;2023-02-22T03:25:00;22.10;;;8.90;;
53391;SDS011;41667;51.922;8.850;2023-02-22T03:27:33;23.50;;;9.40;;
53391;SDS011;41667;51.922;8.850;2023-02-22T03:30:01;29.42;;;9.38;;
53391;SDS011;41667;51.922;8.850;2023-02-22T03:32:28;23.50;;;9.60;;
53391;SDS011;41667;51.922;8.850;2023-02-22T03:34:58;20.77;;;9.00;;
53391;SDS011;41667;51.922;8.850;2023-02-22T03:37:29;24.90;;;9.35;;
53391;SDS011;41667;51.922;8.850;2023-02-22T03:39:55;19.52;;;9.82;;
53391;SDS011;41667;51.922;8.850;2023-02-22T03:42:24;22.30;;;9.45;;
53391;SDS011;41667;51.922;8.850;2023-02-22T03:44:51;24.60;;;10.10;;
53391;SDS011;41667;51.922;8.850;2023-02-22T03:47:19;23.23;;;8.32;;
53391;SDS011;41667;51.922;8.850;2023-02-22T03:49:50;27.92;;;10.85;;
53391;SDS011;41667;51.922;8.850;2023-02-22T03:52:17;28.95;;;10.88;;
53391;SDS011;41667;51.922;8.850;2023-02-22T03:54:42;23.40;;;8.10;;
53391;SDS011;41667;51.922;8.850;2023-02-22T03:57:50;20.77;;;9.43;;
53391;SDS011;41667;51.922;8.850;2023-02-22T03:59:56;22.02;;;8.95;;
53391;SDS011;41667;51.922;8.850;2023-02-22T04:02:21;24.02;;;10.02;;
53391;SDS011;41667;51.922;8.850;2023-02-22T04:04:47;20.05;;;8.63;;
53391;SDS011;41667;51.922;8.850;2023-02-22T04:07:13;24.35;;;9.50;;
53391;SDS011;41667;51.922;8.850;2023-02-22T04:09:38;22.40;;;8.02;;
53391;SDS011;41667;51.922;8.850;2023-02-22T04:12:03;17.57;;;7.37;;
53391;SDS011;41667;51.922;8.850;2023-02-22T04:14:29;22.48;;;8.43;;
53391;SDS011;41667;51.922;8.850;2023-02-22T04:16:54;23.50;;;9.50;;
53391;SDS011;41667;51.922;8.850;2023-02-22T04:19:19;21.77;;;10.20;;
53391;SDS011;41667;51.922;8.850;2023-02-22T04:21:44;21.45;;;8.77;;
53391;SDS011;41667;51.922;8.850;2023-02-22T04:24:09;28.98;;;9.80;;
53391;SDS011;41667;51.922;8.850;2023-02-22T04:26:35;26.08;;;9.88;;
53391;SDS011;41667;51.922;8.850;2023-02-22T04:29:00;33.40;;;9.63;;
53391;SDS011;41667;51.922;8.850;2023-02-22T04:31:25;34.92;;;11.57;;
53391;SDS011;41667;51.922;8.850;2023-02-22T04:33:51;26.02;;;10.90;;
53391;SDS011;41667;51.922;8.850;2023-02-22T04:36:16;21.33;;;8.27;;
53391;SDS011;41667;51.922;8.850;2023-02-22T04:38:41;28.67;;;11.20;;
53391;SDS011;41667;51.922;8.850;2023-02-22T04:41:07;24.98;;;9.52;;
53391;SDS011;41667;51.922;8.850;2023-02-22T04:43:32;28.58;;;9.20;;
53391;SDS011;41667;51.922;8.850;2023-02-22T04:45:57;28.88;;;9.45;;
53391;SDS011;41667;51.922;8.850;2023-02-22T04:48:22;23.70;;;10.07;;
53391;SDS011;41667;51.922;8.850;2023-02-22T04:50:47;29.15;;;11.50;;
53391;SDS011;41667;51.922;8.850;2023-02-22T04:53:13;29.98;;;10.70;;
53391;SDS011;41667;51.922;8.850;2023-02-22T04:55:38;27.42;;;10.15;;
53391;SDS011;41667;51.922;8.850;2023-02-22T04:58:03;30.70;;;10.55;;
53391;SDS011;41667;51.922;8.850;2023-02-22T05:00:28;30.67;;;10.38;;
53391;SDS011;41667;51.922;8.850;2023-02-22T05:02:53;21.57;;;9.90;;
53391;SDS011;41667;51.922;8.850;2023-02-22T05:05:19;27.13;;;9.13;;
53391;SDS011;41667;51.922;8.850;2023-02-22T05:07:48;31.90;;;10.75;;
53391;SDS011;41667;51.922;8.850;2023-02-22T05:10:13;32.78;;;10.63;;
53391;SDS011;41667;51.922;8.850;2023-02-22T05:12:38;30.73;;;10.90;;
53391;SDS011;41667;51.922;8.850;2023-02-22T05:15:04;31.37;;;10.33;;
53391;SDS011;41667;51.922;8.850;2023-02-22T05:17:29;20.30;;;8.05;;
53391;SDS011;41667;51.922;8.850;2023-02-22T05:19:55;23.67;;;10.25;;
53391;SDS011;41667;51.922;8.850;2023-02-22T05:22:20;28.02;;;10.30;;
53391;SDS011;41667;51.922;8.850;2023-02-22T05:24:45;26.30;;;10.38;;
53391;SDS011;41667;51.922;8.850;2023-02-22T05:27:10;26.87;;;10.23;;
53391;SDS011;41667;51.922;8.850;2023-02-22T05:29:35;25.55;;;9.73;;
53391;SDS011;41667;51.922;8.850;2023-02-22T05:32:02;25.58;;;10.13;;
53391;SDS011;41667;51.922;8.850;2023-02-22T05:34:27;29.00;;;10.63;;
53391;SDS011;41667;51.922;8.850;2023-02-22T05:36:52;26.67;;;10.63;;
53391;SDS011;41667;51.922;8.850;2023-02-22T05:39:17;36.80;;;12.48;;
53391;SDS011;41667;51.922;8.850;2023-02-22T05:41:43;30.15;;;10.57;;
53391;SDS011;41667;51.922;8.850;2023-02-22T05:44:08;31.17;;;11.77;;
53391;SDS011;41667;51.922;8.850;2023-02-22T05:46:33;26.30;;;10.37;;
53391;SDS011;41667;51.922;8.850;2023-02-22T05:48:58;25.73;;;8.97;;
53391;SDS011;41667;51.922;8.850;2023-02-22T05:51:23;31.15;;;10.23;;
53391;SDS011;41667;51.922;8.850;2023-02-22T05:53:48;29.67;;;11.50;;
53391;SDS011;41667;51.922;8.850;2023-02-22T05:56:19;29.05;;;10.48;;
53391;SDS011;41667;51.922;8.850;2023-02-22T05:58:44;30.25;;;9.82;;
53391;SDS011;41667;51.922;8.850;2023-02-22T06:01:09;25.00;;;9.55;;
53391;SDS011;41667;51.922;8.850;2023-02-22T06:03:34;26.30;;;12.48;;
53391;SDS011;41667;51.922;8.850;2023-02-22T06:06:00;27.00;;;9.97;;
53391;SDS011;41667;51.922;8.850;2023-02-22T06:08:25;30.98;;;11.60;;
53391;SDS011;41667;51.922;8.850;2023-02-22T06:10:50;29.05;;;10.90;;
53391;SDS011;41667;51.922;8.850;2023-02-22T06:13:15;26.55;;;10.18;;
53391;SDS011;41667;51.922;8.850;2023-02-22T06:15:40;28.30;;;10.30;;
53391;SDS011;41667;51.922;8.850;2023-02-22T06:18:05;24.07;;;10.47;;
53391;SDS011;41667;51.922;8.850;2023-02-22T06:20:30;30.23;;;11.73;;
53391;SDS011;41667;51.922;8.850;2023-02-22T06:22:57;25.27;;;10.38;;
53391;SDS011;41667;51.922;8.850;2023-02-22T06:25:24;29.77;;;9.75;;
53391;SDS011;41667;51.922;8.850;2023-02-22T06:27:50;22.67;;;10.95;;
53391;SDS011;41667;51.922;8.850;2023-02-22T06:30:16;30.00;;;11.57;;
53391;SDS011;41667;51.922;8.850;2023-02-22T06:32:41;29.05;;;10.70;;
53391;SDS011;41667;51.922;8.850;2023-02-22T06:35:07;27.40;;;10.05;;
53391;SDS011;41667;51.922;8.850;2023-02-22T06:37:32;28.17;;;12.00;;
53391;SDS011;41667;51.922;8.850;2023-02-22T06:39:57;35.53;;;11.38;;
53391;SDS011;41667;51.922;8.850;2023-02-22T06:42:22;32.88;;;12.13;;
53391;SDS011;41667;51.922;8.850;2023-02-22T06:44:48;34.63;;;12.48;;
53391;SDS011;41667;51.922;8.850;2023-02-22T06:47:13;32.17;;;11.40;;
53391;SDS011;41667;51.922;8.850;2023-02-22T06:49:38;36.83;;;11.90;;
53391;SDS011;41667;51.922;8.850;2023-02-22T06:52:04;30.07;;;11.80;;
53391;SDS011;41667;51.922;8.850;2023-02-22T06:54:29;32.78;;;12.48;;
53391;SDS011;41667;51.922;8.850;2023-02-22T06:56:54;26.80;;;11.65;;
53391;SDS011;41667;51.922;8.850;2023-02-22T06:59:20;30.60;;;11.33;;
53391;SDS011;41667;51.922;8.850;2023-02-22T07:01:45;24.67;;;10.55;;
53391;SDS011;41667;51.922;8.850;2023-02-22T07:04:10;34.35;;;13.57;;
53391;SDS011;41667;51.922;8.850;2023-02-22T07:06:35;29.90;;;13.00;;
53391;SDS011;41667;51.922;8.850;2023-02-22T07:09:01;34.60;;;12.95;;
53391;SDS011;41667;51.922;8.850;2023-02-22T07:11:26;34.22;;;11.95;;
53391;SDS011;41667;51.922;8.850;2023-02-22T07:13:51;33.78;;;14.07;;
53391;SDS011;41667;51.922;8.850;2023-02-22T07:16:16;36.42;;;15.48;;
53391;SDS011;41667;51.922;8.850;2023-02-22T07:18:41;36.93;;;15.73;;
53391;SDS011;41667;51.922;8.850;2023-02-22T07:21:06;44.25;;;15.93;;
53391;SDS011;41667;51.922;8.850;2023-02-22T07:23:32;46.60;;;18.52;;
53391;SDS011;41667;51.922;8.850;2023-02-22T07:26:00;46.00;;;17.15;;
53391;SDS011;41667;51.922;8.850;2023-02-22T07:28:26;59.30;;;18.70;;
53391;SDS011;41667;51.922;8.850;2023-02-22T07:30:51;60.03;;;18.45;;
53391;SDS011;41667;51.922;8.850;2023-02-22T07:33:16;67.57;;;21.02;;
53391;SDS011;41667;51.922;8.850;2023-02-22T07:35:45;56.20;;;19.95;;
53391;SDS011;41667;51.922;8.850;2023-02-22T07:38:11;70.25;;;20.08;;
53391;SDS011;41667;51.922;8.850;2023-02-22T07:40:36;67.03;;;20.48;;
53391;SDS011;41667;51.922;8.850;2023-02-22T07:43:12;61.15;;;20.30;;
53391;SDS011;41667;51.922;8.850;2023-02-22T07:45:38;61.40;;;20.10;;
53391;SDS011;41667;51.922;8.850;2023-02-22T07:48:03;59.72;;;18.55;;
53391;SDS011;41667;51.922;8.850;2023-02-22T07:50:29;68.82;;;21.05;;
53391;SDS011;41667;51.922;8.850;2023-02-22T07:52:55;58.45;;;20.60;;
53391;SDS011;41667;51.922;8.850;2023-02-22T07:55:21;62.50;;;20.20;;
53391;SDS011;41667;51.922;8.850;2023-02-22T07:57:47;59.67;;;21.77;;
53391;SDS011;41667;51.922;8.850;2023-02-22T08:00:13;60.00;;;21.40;;
53391;SDS011;41667;51.922;8.850;2023-02-22T08:02:42;64.15;;;20.70;;
53391;SDS011;41667;51.922;8.850;2023-02-22T08:05:08;61.30;;;21.20;;
53391;SDS011;41667;51.922;8.850;2023-02-22T08:07:34;61.63;;;21.52;;
53391;SDS011;41667;51.922;8.850;2023-02-22T08:10:00;59.08;;;19.38;;
53391;SDS011;41667;51.922;8.850;2023-02-22T08:12:25;64.00;;;24.75;;
53391;SDS011;41667;51.922;8.850;2023-02-22T08:14:50;60.45;;;23.17;;
53391;SDS011;41667;51.922;8.850;2023-02-22T08:17:15;61.03;;;24.00;;
53391;SDS011;41667;51.922;8.850;2023-02-22T08:19:40;61.70;;;22.45;;
53391;SDS011;41667;51.922;8.850;2023-02-22T08:22:05;66.47;;;24.77;;
53391;SDS011;41667;51.922;8.850;2023-02-22T08:24:30;63.03;;;23.83;;
53391;SDS011;41667;51.922;8.850;2023-02-22T08:26:56;66.22;;;23.75;;
53391;SDS011;41667;51.922;8.850;2023-02-22T08:29:21;55.77;;;23.17;;
53391;SDS011;41667;51.922;8.850;2023-02-22T08:31:50;59.80;;;24.08;;
53391;SDS011;41667;51.922;8.850;2023-02-22T08:34:17;54.25;;;22.63;;
53391;SDS011;41667;51.922;8.850;2023-02-22T08:36:43;58.20;;;22.50;;
53391;SDS011;41667;51.922;8.850;2023-02-22T08:39:08;52.87;;;20.77;;
53391;SDS011;41667;51.922;8.850;2023-02-22T08:41:33;64.80;;;24.08;;
53391;SDS011;41667;51.922;8.850;2023-02-22T08:43:58;58.22;;;24.77;;
53391;SDS011;41667;51.922;8.850;2023-02-22T08:46:26;61.55;;;23.88;;
53391;SDS011;41667;51.922;8.850;2023-02-22T08:48:51;55.00;;;23.15;;
53391;SDS011;41667;51.922;8.850;2023-02-22T08:51:16;61.17;;;23.33;;
53391;SDS011;41667;51.922;8.850;2023-02-22T08:53:42;54.03;;;23.48;;
53391;SDS011;41667;51.922;8.850;2023-02-22T08:56:08;56.63;;;23.80;;
53391;SDS011;41667;51.922;8.850;2023-02-22T08:58:33;57.97;;;23.33;;
53391;SDS011;41667;51.922;8.850;2023-02-22T09:00:59;52.80;;;23.50;;
53391;SDS011;41667;51.922;8.850;2023-02-22T09:03:24;49.00;;;23.02;;
53391;SDS011;41667;51.922;8.850;2023-02-22T09:05:49;49.57;;;22.57;;
53391;SDS011;41667;51.922;8.850;2023-02-22T09:08:14;43.57;;;21.97;;
53391;SDS011;41667;51.922;8.850;2023-02-22T09:10:40;46.45;;;20.73;;
53391;SDS011;41667;51.922;8.850;2023-02-22T09:13:05;52.90;;;22.58;;
53391;SDS011;41667;51.922;8.850;2023-02-22T09:15:30;40.60;;;19.55;;
53391;SDS011;41667;51.922;8.850;2023-02-22T09:17:56;47.70;;;20.83;;
53391;SDS011;41667;51.922;8.850;2023-02-22T09:20:22;40.95;;;20.55;;
53391;SDS011;41667;51.922;8.850;2023-02-22T09:22:47;40.90;;;18.60;;
53391;SDS011;41667;51.922;8.850;2023-02-22T09:25:12;38.13;;;18.42;;
53391;SDS011;41667;51.922;8.850;2023-02-22T09:27:38;36.60;;;18.45;;
53391;SDS011;41667;51.922;8.850;2023-02-22T09:30:04;47.47;;;19.95;;
53391;SDS011;41667;51.922;8.850;2023-02-22T09:32:29;34.10;;;18.00;;
53391;SDS011;41667;51.922;8.850;2023-02-22T09:34:54;40.17;;;18.50;;
53391;SDS011;41667;51.922;8.850;2023-02-22T09:37:20;40.80;;;18.10;;
53391;SDS011;41667;51.922;8.850;2023-02-22T09:39:45;38.42;;;18.15;;
53391;SDS011;41667;51.922;8.850;2023-02-22T09:44:46;38.70;;;17.73;;
53391;SDS011;41667;51.922;8.850;2023-02-22T09:47:13;37.38;;;17.75;;
53391;SDS011;41667;51.922;8.850;2023-02-22T09:49:40;35.55;;;16.75;;
53391;SDS011;41667;51.922;8.850;2023-02-22T09:54:40;31.95;;;16.10;;
53391;SDS011;41667;51.922;8.850;2023-02-22T09:57:08;27.02;;;16.75;;
53391;SDS011;41667;51.922;8.850;2023-02-22T09:59:38;32.00;;;16.02;;
53391;SDS011;41667;51.922;8.850;2023-02-22T10:02:13;34.08;;;17.55;;
53391;SDS011;41667;51.922;8.850;2023-02-22T10:04:45;27.42;;;15.00;;
53391;SDS011;41667;51.922;8.850;2023-02-22T10:07:15;32.78;;;15.60;;
53391;SDS011;41667;51.922;8.850;2023-02-22T10:09:42;28.70;;;15.73;;
53391;SDS011;41667;51.922;8.850;2023-02-22T10:12:09;31.15;;;15.48;;
53391;SDS011;41667;51.922;8.850;2023-02-22T10:14:52;27.35;;;14.60;;
53391;SDS011;41667;51.922;8.850;2023-02-22T10:17:28;28.50;;;14.77;;
53391;SDS011;41667;51.922;8.850;2023-02-22T10:27:44;26.52;;;13.25;;
53391;SDS011;41667;51.922;8.850;2023-02-22T10:30:21;27.20;;;14.63;;
53391;SDS011;41667;51.922;8.850;2023-02-22T10:32:54;24.40;;;13.52;;
53391;SDS011;41667;51.922;8.850;2023-02-22T10:35:26;20.88;;;11.32;;
53391;SDS011;41667;51.922;8.850;2023-02-22T10:37:57;25.10;;;12.73;;
53391;SDS011;41667;51.922;8.850;2023-02-22T10:40:23;22.48;;;12.82;;
53391;SDS011;41667;51.922;8.850;2023-02-22T10:42:56;22.02;;;12.82;;
53391;SDS011;41667;51.922;8.850;2023-02-22T10:45:23;24.42;;;12.88;;
53391;SDS011;41667;51.922;8.850;2023-02-22T10:47:50;22.98;;;11.75;;
53391;SDS011;41667;51.922;8.850;2023-02-22T10:50:16;21.50;;;11.35;;
53391;SDS011;41667;51.922;8.850;2023-02-22T10:52:41;24.63;;;13.27;;
53391;SDS011;41667;51.922;8.850;2023-02-22T10:55:10;18.17;;;12.00;;
53391;SDS011;41667;51.922;8.850;2023-02-22T10:57:37;20.05;;;11.10;;
53391;SDS011;41667;51.922;8.850;2023-02-22T11:02:40;19.38;;;11.52;;
53391;SDS011;41667;51.922;8.850;2023-02-22T11:05:25;19.67;;;11.23;;
53391;SDS011;41667;51.922;8.850;2023-02-22T11:07:50;18.67;;;12.07;;
53391;SDS011;41667;51.922;8.850;2023-02-22T11:10:21;17.83;;;10.90;;
53391;SDS011;41667;51.922;8.850;2023-02-22T11:12:54;21.58;;;11.80;;
53391;SDS011;41667;51.922;8.850;2023-02-22T11:17:51;18.05;;;11.30;;
53391;SDS011;41667;51.922;8.850;2023-02-22T11:20:27;16.05;;;9.73;;
53391;SDS011;41667;51.922;8.850;2023-02-22T11:22:56;19.23;;;10.80;;
53391;SDS011;41667;51.922;8.850;2023-02-22T11:25:24;19.90;;;10.80;;
53391;SDS011;41667;51.922;8.850;2023-02-22T11:27:50;16.20;;;9.68;;
53391;SDS011;41667;51.922;8.850;2023-02-22T11:30:18;16.30;;;11.02;;
53391;SDS011;41667;51.922;8.850;2023-02-22T11:32:45;16.90;;;10.13;;
53391;SDS011;41667;51.922;8.850;2023-02-22T11:35:18;16.13;;;8.80;;
53391;SDS011;41667;51.922;8.850;2023-02-22T11:37:44;16.48;;;9.68;;
53391;SDS011;41667;51.922;8.850;2023-02-22T11:40:16;14.65;;;9.48;;
53391;SDS011;41667;51.922;8.850;2023-02-22T11:42:43;18.45;;;10.40;;
53391;SDS011;41667;51.922;8.850;2023-02-22T11:45:13;19.10;;;9.52;;
53391;SDS011;41667;51.922;8.850;2023-02-22T11:47:51;20.05;;;9.77;;
53391;SDS011;41667;51.922;8.850;2023-02-22T11:52:47;20.10;;;9.35;;
53391;SDS011;41667;51.922;8.850;2023-02-22T11:55:22;15.07;;;9.35;;
53391;SDS011;41667;51.922;8.850;2023-02-22T11:57:54;15.30;;;9.20;;
53391;SDS011;41667;51.922;8.850;2023-02-22T12:00:47;17.88;;;9.18;;
53391;SDS011;41667;51.922;8.850;2023-02-22T12:03:19;15.90;;;9.77;;
53391;SDS011;41667;51.922;8.850;2023-02-22T12:06:09;14.52;;;9.15;;
53391;SDS011;41667;51.922;8.850;2023-02-22T12:11:13;13.25;;;9.32;;
53391;SDS011;41667;51.922;8.850;2023-02-22T12:16:18;12.35;;;8.57;;
53391;SDS011;41667;51.922;8.850;2023-02-22T12:21:13;13.35;;;7.55;;
53391;SDS011;41667;51.922;8.850;2023-02-22T12:23:50;15.48;;;8.65;;
53391;SDS011;41667;51.922;8.850;2023-02-22T12:26:38;14.52;;;7.70;;
53391;SDS011;41667;51.922;8.850;2023-02-22T12:29:05;11.48;;;7.75;;
53391;SDS011;41667;51.922;8.850;2023-02-22T12:36:55;10.10;;;7.18;;
53391;SDS011;41667;51.922;8.850;2023-02-22T12:39:23;10.70;;;6.60;;
53391;SDS011;41667;51.922;8.850;2023-02-22T12:41:49;10.60;;;7.55;;
53391;SDS011;41667;51.922;8.850;2023-02-22T12:44:20;11.35;;;7.65;;
53391;SDS011;41667;51.922;8.850;2023-02-22T12:46:47;12.25;;;7.40;;
53391;SDS011;41667;51.922;8.850;2023-02-22T12:49:15;16.10;;;9.00;;
53391;SDS011;41667;51.922;8.850;2023-02-22T12:51:48;11.30;;;7.15;;
53391;SDS011;41667;51.922;8.850;2023-02-22T12:56:45;11.82;;;7.22;;
53391;SDS011;41667;51.922;8.850;2023-02-22T12:59:19;13.15;;;8.07;;
53391;SDS011;41667;51.922;8.850;2023-02-22T13:01:50;9.73;;;7.28;;
53391;SDS011;41667;51.922;8.850;2023-02-22T13:04:15;9.82;;;6.53;;
53391;SDS011;41667;51.922;8.850;2023-02-22T13:06:56;8.65;;;6.05;;
53391;SDS011;41667;51.922;8.850;2023-02-22T13:12:18;11.13;;;5.88;;
53391;SDS011;41667;51.922;8.850;2023-02-22T13:17:34;9.93;;;5.93;;
53391;SDS011;41667;51.922;8.850;2023-02-22T13:20:02;9.20;;;6.28;;
53391;SDS011;41667;51.922;8.850;2023-02-22T13:27:48;12.97;;;6.63;;
53391;SDS011;41667;51.922;8.850;2023-02-22T13:30:16;9.95;;;6.45;;
53391;SDS011;41667;51.922;8.850;2023-02-22T13:38:33;7.05;;;6.22;;
53391;SDS011;41667;51.922;8.850;2023-02-22T13:41:13;10.48;;;5.63;;
53391;SDS011;41667;51.922;8.850;2023-02-22T13:49:02;7.70;;;6.25;;
53391;SDS011;41667;51.922;8.850;2023-02-22T13:51:32;9.10;;;5.97;;
53391;SDS011;41667;51.922;8.850;2023-02-22T13:54:03;7.97;;;5.85;;
53391;SDS011;41667;51.922;8.850;2023-02-22T13:56:30;8.25;;;5.45;;
53391;SDS011;41667;51.922;8.850;2023-02-22T13:58:59;8.00;;;5.53;;
53391;SDS011;41667;51.922;8.850;2023-02-22T14:01:42;7.95;;;5.43;;
53391;SDS011;41667;51.922;8.850;2023-02-22T14:06:51;7.38;;;5.20;;
53391;SDS011;41667;51.922;8.850;2023-02-22T14:09:36;6.80;;;5.00;;
53391;SDS011;41667;51.922;8.850;2023-02-22T14:12:01;7.93;;;5.20;;
53391;SDS011;41667;51.922;8.850;2023-02-22T14:14:26;8.18;;;4.93;;
53391;SDS011;41667;51.922;8.850;2023-02-22T14:19:35;5.72;;;4.43;;
53391;SDS011;41667;51.922;8.850;2023-02-22T14:22:02;6.13;;;4.97;;
53391;SDS011;41667;51.922;8.850;2023-02-22T14:24:48;7.68;;;5.15;;
53391;SDS011;41667;51.922;8.850;2023-02-22T14:27:14;7.22;;;4.70;;
53391;SDS011;41667;51.922;8.850;2023-02-22T14:29:48;7.50;;;4.72;;
53391;SDS011;41667;51.922;8.850;2023-02-22T14:32:14;7.00;;;4.22;;
53391;SDS011;41667;51.922;8.850;2023-02-22T14:34:46;7.20;;;4.40;;
53391;SDS011;41667;51.922;8.850;2023-02-22T14:39:42;4.85;;;3.88;;
53391;SDS011;41667;51.922;8.850;2023-02-22T14:45:22;5.68;;;3.65;;
53391;SDS011;41667;51.922;8.850;2023-02-22T14:47:37;4.18;;;3.28;;
53391;SDS011;41667;51.922;8.850;2023-02-22T14:50:13;6.68;;;3.55;;
53391;SDS011;41667;51.922;8.850;2023-02-22T14:52:41;4.60;;;3.50;;
53391;SDS011;41667;51.922;8.850;2023-02-22T14:55:12;5.40;;;3.50;;
53391;SDS011;41667;51.922;8.850;2023-02-22T14:57:43;4.68;;;3.65;;
53391;SDS011;41667;51.922;8.850;2023-02-22T15:00:16;8.00;;;3.88;;
53391;SDS011;41667;51.922;8.850;2023-02-22T15:02:47;7.15;;;4.13;;
53391;SDS011;41667;51.922;8.850;2023-02-22T15:05:14;6.50;;;4.55;;
53391;SDS011;41667;51.922;8.850;2023-02-22T15:07:45;7.60;;;4.57;;
53391;SDS011;41667;51.922;8.850;2023-02-22T15:12:55;5.47;;;4.30;;
53391;SDS011;41667;51.922;8.850;2023-02-22T15:15:32;6.78;;;4.72;;
53391;SDS011;41667;51.922;8.850;2023-02-22T15:17:58;6.22;;;4.75;;
53391;SDS011;41667;51.922;8.850;2023-02-22T15:20:23;6.82;;;4.75;;
53391;SDS011;41667;51.922;8.850;2023-02-22T15:22:49;7.45;;;4.57;;
53391;SDS011;41667;51.922;8.850;2023-02-22T15:25:14;8.60;;;4.75;;
53391;SDS011;41667;51.922;8.850;2023-02-22T15:27:40;6.75;;;4.95;;
53391;SDS011;41667;51.922;8.850;2023-02-22T15:30:42;6.32;;;4.55;;
53391;SDS011;41667;51.922;8.850;2023-02-22T15:33:19;10.85;;;5.30;;
53391;SDS011;41667;51.922;8.850;2023-02-22T15:35:54;6.93;;;4.05;;
53391;SDS011;41667;51.922;8.850;2023-02-22T15:38:20;6.78;;;4.28;;
53391;SDS011;41667;51.922;8.850;2023-02-22T15:40:45;4.88;;;3.78;;
53391;SDS011;41667;51.922;8.850;2023-02-22T15:43:16;4.90;;;3.95;;
53391;SDS011;41667;51.922;8.850;2023-02-22T15:45:42;4.68;;;3.45;;
53391;SDS011;41667;51.922;8.850;2023-02-22T15:48:08;6.55;;;3.92;;
53391;SDS011;41667;51.922;8.850;2023-02-22T15:50:33;7.15;;;4.50;;
53391;SDS011;41667;51.922;8.850;2023-02-22T15:53:03;7.10;;;4.28;;
53391;SDS011;41667;51.922;8.850;2023-02-22T15:57:58;7.25;;;5.20;;
53391;SDS011;41667;51.922;8.850;2023-02-22T16:00:26;5.03;;;4.00;;
53391;SDS011;41667;51.922;8.850;2023-02-22T16:02:59;7.47;;;4.32;;
53391;SDS011;41667;51.922;8.850;2023-02-22T16:05:30;6.45;;;3.55;;